St. Johann, Austria
Current Conditions -  °F | °C
As of 4:20 AM on Thursday 27 Nov 2014 (Local Time) from LOWS Reporting Station
Broken Clouds Broken Clouds  
Wind Chill: 37°   Ceiling: 1000
Heat Index: 37°   Visibility: 6mi
Dew Point: 36°   Wind: 3mph
Humidity: 93%   Direction: 330°NNW
Pressure: 29.88"   Gusts: NA
Location:  47.52°N, 12.45°E
Report Text: LOWS 270220Z AUTO 33003KT 9000 FEW006 BKN010 03/02 Q1012
Loading
Personal Weather Stations






























Interactive Weather Map New forecast layout! Learn more

10-Day Weather Forecast

Advertisements
Track Severe Weather on mobile